Flight Track Log - Related Links

Times and Time Zones

All times are in EDT time to prevent confusion due to time zone crossing. See the SKQ227 flight status page for this flight to view local times or setup timezone preferences in your user account.

Time Position Orientation Groundspeed Altitude Reporting Facility
EDT Latitude Longitude Course Direction KTS MPH feet Rate Location/Type
Sat 11:39:41 PM 42.1167 -87.8500 90° East 149 171 1,700  Level Chicago TRACON
Sat 11:40:41 PM 42.1167 -87.8000 90° East 165 190 2,500 809 Climbing Chicago TRACON
Sat 11:41:10 PM 42.1167 -87.7639 90° East 164 189 2,900 800 Climbing Chicago Center
Sat 11:42:11 PM 42.1206 -87.6978 85° East 169 194 3,700 843 Climbing Chicago Center
Sat 11:43:11 PM 42.1258 -87.6308 84° East 175 201 4,600 900 Climbing Chicago Center
Sat 11:44:11 PM 42.1319 -87.5631 83° East 180 207 5,500 694 Climbing Chicago Center
Sat 11:45:12 PM 42.1325 -87.4956 89° East 181 208 6,000 248 Climbing Chicago Center
Sat 11:46:12 PM 42.1033 -87.4297 121° Southeast 203 234 6,000  Level Chicago Center
Sat 11:47:13 PM 42.0736 -87.3667 122° Southeast 201 231 6,000  Level Chicago Center
Sat 11:48:13 PM 42.0458 -87.3019 120° Southeast 200 230 6,000  Level Chicago Center
Sat 11:49:13 PM 42.0181 -87.2372 120° Southeast 200 230 6,000 248 Level Chicago Center
Sat 11:50:14 PM 41.9894 -87.1747 122° Southeast 198 228 6,500 545 Climbing Chicago Center
Sat 11:51:14 PM 41.9642 -87.1169 120° Southeast 183 211 7,100 595 Climbing Chicago Center
Sat 11:52:15 PM 41.9375 -87.0589 122° Southeast 181 208 7,700 645 Climbing Chicago Center
Sat 11:53:15 PM 41.9119 -87.0008 121° Southeast 182 209 8,400 650 Climbing Chicago Center
Sat 11:54:15 PM 41.8869 -86.9428 120° Southeast 181 208 9,000 298 Climbing Chicago Center
Sat 11:55:16 PM 41.8581 -86.8764 120° Southeast 201 231 9,000 50 Level Chicago Center
Sat 11:56:16 PM 41.8281 -86.8067 120° Southeast 214 246 9,100  Climbing Chicago Center
Sat 11:57:16 PM 41.7989 -86.7397 120° Southeast 211 243 9,000 -50 Descending Chicago Center
Sat 11:58:17 PM 41.7664 -86.6669 121° Southeast 209 241 9,000  Level Chicago Center
Sat 11:59:17 PM 41.7372 -86.5997 120° Southeast 209 241 9,000  Level Chicago Center
Sun 12:00:17 AM 41.7072 -86.5333 121° Southeast 209 241 9,000  Level Chicago Center
Sun 12:01:18 AM 41.6769 -86.4669 121° Southeast 208 239 9,000  Level Chicago Center
Sun 12:02:18 AM 41.6478 -86.3983 120° Southeast 212 244 9,000  Level Chicago Center
Sun 12:03:32 AM 41.6108 -86.3192 122° Southeast 211 243 9,000  Level Chicago Center
Sun 12:04:32 AM 41.5819 -86.2511 120° Southeast 211 243 9,000  Level Chicago Center
Sun 12:05:33 AM 41.5511 -86.1847 122° Southeast 212 244 9,000  Level Chicago Center
Sun 12:06:33 AM 41.5219 -86.1186 120° Southeast 208 239 9,000  Level Chicago Center
Sun 12:07:33 AM 41.4906 -86.0514 122° Southeast 212 244 9,000  Level Chicago Center
Sun 12:08:34 AM 41.4611 -85.9850 121° Southeast 209 241 9,000  Level Chicago Center
Sun 12:09:34 AM 41.4311 -85.9175 121° Southeast 212 244 9,000  Level Chicago Center
Sun 12:10:34 AM 41.4003 -85.8497 121° Southeast 215 247 9,000  Level Chicago Center
Sun 12:11:35 AM 41.3697 -85.7833 122° Southeast 214 246 9,000  Level Chicago Center
Sun 12:12:35 AM 41.3331 -85.7039 122° Southeast 211 243 9,000  Level Chicago Center
Sun 12:13:35 AM 41.3028 -85.6364 121° Southeast 214 246 9,000  Level Chicago Center
Sun 12:14:36 AM 41.2725 -85.5692 121° Southeast 215 247 9,000  Level Chicago Center
Sun 12:15:36 AM 41.2419 -85.5028 121° Southeast 212 244 9,000  Level Chicago Center
Sun 12:16:36 AM 41.2114 -85.4369 122° Southeast 210 242 9,000  Level Chicago Center
Sun 12:17:37 AM 41.1828 -85.3739 121° Southeast 203 234 9,000  Level Chicago Center
Sun 12:18:37 AM 41.1514 -85.3067 122° Southeast 213 245 9,000  Level Chicago Center
Sun 12:19:37 AM 41.1211 -85.2400 121° Southeast 214 246 9,000  Level Chicago Center
Sun 12:20:38 AM 41.0917 -85.1756 121° Southeast 209 241 9,000  Level Chicago Center
Sun 12:21:38 AM 41.0611 -85.1097 122° Southeast 209 241 9,000  Level Chicago Center
Sun 12:22:38 AM 41.0306 -85.0447 122° Southeast 209 241 9,000  Level Chicago Center
Sun 12:23:38 AM 40.9997 -84.9786 122° Southeast 210 242 9,000  Level Chicago Center
Sun 12:24:39 AM 40.9692 -84.9133 122° Southeast 210 242 9,000  Level Chicago Center
Sun 12:25:39 AM 40.9381 -84.8475 122° Southeast 212 244 9,000  Level Chicago Center
Sun 12:26:39 AM 40.9075 -84.7822 122° Southeast 210 242 9,000  Level Chicago Center
Sun 12:27:40 AM 40.8767 -84.7167 122° Southeast 209 241 9,000 66 Level Chicago Center
Sun 12:28:10 AM 40.8578 -84.6783 123° Southeast 210 242 9,100 66 Climbing Indianapolis Center
Sun 12:29:11 AM 40.8269 -84.6117 121° Southeast 211 243 9,100  Level Indianapolis Center
Sun 12:30:11 AM 40.7947 -84.5453 123° Southeast 212 244 9,100  Level Indianapolis Center
Sun 12:31:11 AM 40.7636 -84.4794 122° Southeast 210 242 9,100  Level Indianapolis Center
Sun 12:32:11 AM 40.7319 -84.4136 122° Southeast 210 242 9,100  Level Indianapolis Center
Sun 12:33:11 AM 40.7011 -84.3481 122° Southeast 209 241 9,100  Level Indianapolis Center
Sun 12:33:51 AM 40.6814 -84.3086 123° Southeast 208 239 9,100  Level Indianapolis Center
Sun 12:34:12 AM 40.6753 -84.2939 119° Southeast 208 239 9,100  Level Indianapolis Center
Sun 12:34:52 AM 40.6472 -84.2381 124° Southeast 209 241 9,100  Level Indianapolis Center
Sun 12:35:12 AM 40.6436 -84.2278 115° Southeast 210 242 9,100  Level Indianapolis Center
Sun 12:35:52 AM 40.6167 -84.1733 123° Southeast 211 243 9,100  Level Indianapolis Center
Sun 12:36:12 AM 40.6119 -84.1625 120° Southeast 211 243 9,100  Level Indianapolis Center
Sun 12:36:53 AM 40.5858 -84.1089 123° Southeast 209 241 9,100  Level Indianapolis Center
Sun 12:37:12 AM 40.5803 -84.0964 120° Southeast 211 243 9,100  Level Indianapolis Center
Sun 12:37:54 AM 40.5533 -84.0442 124° Southeast 212 244 9,100  Level Indianapolis Center
Sun 12:38:12 AM 40.5483 -84.0311 117° Southeast 210 242 9,100  Level Indianapolis Center
Sun 12:38:54 AM 40.5228 -83.9769 122° Southeast 210 242 9,100  Level Indianapolis Center
Sun 12:39:13 AM 40.5167 -83.9656 125° Southeast 210 242 9,100  Level Indianapolis Center
Sun 12:39:55 AM 40.4900 -83.9122 123° Southeast 211 243 9,100  Level Indianapolis Center
Sun 12:40:13 AM 40.4861 -83.9000 113° Southeast 209 241 9,100  Level Indianapolis Center
Sun 12:41:13 AM 40.4528 -83.8331 123° Southeast 215 247 9,100  Level Indianapolis Center
Sun 12:41:56 AM 40.4264 -83.7833 125° Southeast 212 244 9,100  Level Indianapolis Center
Sun 12:42:13 AM 40.4217 -83.7686 113° Southeast 209 241 9,100 -197 Level Indianapolis Center
Sun 12:42:57 AM 40.3956 -83.7164 123° Southeast 214 246 8,900 -400 Descending Indianapolis Center
Sun 12:43:13 AM 40.3892 -83.7006 118° Southeast 214 246 8,700 -600 Descending Indianapolis Center
Sun 12:43:57 AM 40.3592 -83.6433 125° Southeast 230 265 8,300 -492 Descending Indianapolis Center
Sun 12:44:14 AM 40.3544 -83.6294 114° Southeast 225 259 8,200 -492 Descending Indianapolis Center
Sun 12:44:58 AM 40.3264 -83.5764 125° Southeast 222 255 7,800 -500 Descending Indianapolis Center
Sun 12:45:14 AM 40.3208 -83.5619 117° Southeast 221 254 7,700 -1,300 Descending Indianapolis Center
Sun 12:45:58 AM 40.2917 -83.5064 125° Southeast 229 264 6,500 -1,500 Descending Indianapolis Center
Sun 12:46:14 AM 40.2856 -83.4908 117° Southeast 227 261 6,200 -395 Descending Indianapolis Center
Sun 12:47:14 AM 40.2506 -83.4233 124° Southeast 228 262 6,000 -200 Descending Indianapolis Center

Login

Don't have an account? Register now (free) for customized features, flight alerts, and more!